sensor_id;sensor_type;location;lat;lon;timestamp;pressure;altitude;pressure_sealevel;temperature;humidity
46722;BME280;32455;43.430;23.136;2023-05-12T00:00:30;98393.72;;;10.77;100.00
46722;BME280;32455;43.430;23.136;2023-05-12T00:03:16;98384.03;;;10.70;100.00
46722;BME280;32455;43.430;23.136;2023-05-12T00:06:01;98398.78;;;10.92;100.00
46722;BME280;32455;43.430;23.136;2023-05-12T00:08:49;98394.44;;;10.91;100.00
46722;BME280;32455;43.430;23.136;2023-05-12T00:11:36;98393.56;;;10.97;100.00
46722;BME280;32455;43.430;23.136;2023-05-12T00:14:22;98394.31;;;11.04;100.00
46722;BME280;32455;43.430;23.136;2023-05-12T00:17:06;98386.88;;;11.07;100.00
46722;BME280;32455;43.430;23.136;2023-05-12T00:19:52;98401.28;;;11.12;100.00
46722;BME280;32455;43.430;23.136;2023-05-12T00:22:38;98392.41;;;11.12;100.00
46722;BME280;32455;43.430;23.136;2023-05-12T00:25:24;98381.44;;;10.88;100.00
46722;BME280;32455;43.430;23.136;2023-05-12T00:28:09;98385.94;;;10.94;100.00
46722;BME280;32455;43.430;23.136;2023-05-12T00:30:56;98397.34;;;10.90;100.00
46722;BME280;32455;43.430;23.136;2023-05-12T00:33:41;98398.78;;;10.92;100.00
46722;BME280;32455;43.430;23.136;2023-05-12T00:36:26;98399.34;;;11.01;100.00
46722;BME280;32455;43.430;23.136;2023-05-12T00:39:11;98397.22;;;11.03;100.00
46722;BME280;32455;43.430;23.136;2023-05-12T00:41:58;98409.16;;;11.14;100.00
46722;BME280;32455;43.430;23.136;2023-05-12T00:44:43;98405.06;;;11.04;100.00
46722;BME280;32455;43.430;23.136;2023-05-12T00:47:29;98403.44;;;11.03;100.00
46722;BME280;32455;43.430;23.136;2023-05-12T00:50:15;98389.41;;;11.01;100.00
46722;BME280;32455;43.430;23.136;2023-05-12T00:53:02;98412.16;;;10.99;100.00
46722;BME280;32455;43.430;23.136;2023-05-12T00:55:48;98411.00;;;10.88;100.00
46722;BME280;32455;43.430;23.136;2023-05-12T00:58:33;98413.09;;;10.86;100.00
46722;BME280;32455;43.430;23.136;2023-05-12T01:01:18;98401.09;;;10.89;100.00
46722;BME280;32455;43.430;23.136;2023-05-12T01:04:04;98412.38;;;10.97;100.00
46722;BME280;32455;43.430;23.136;2023-05-12T01:07:20;98390.59;;;10.81;100.00
46722;BME280;32455;43.430;23.136;2023-05-12T01:10:27;98423.44;;;10.83;100.00
46722;BME280;32455;43.430;23.136;2023-05-12T01:13:12;98406.88;;;10.86;100.00
46722;BME280;32455;43.430;23.136;2023-05-12T01:15:59;98401.28;;;10.87;100.00
46722;BME280;32455;43.430;23.136;2023-05-12T01:18:46;98412.38;;;10.97;100.00
46722;BME280;32455;43.430;23.136;2023-05-12T01:21:35;98408.06;;;10.96;100.00
46722;BME280;32455;43.430;23.136;2023-05-12T01:24:23;98422.31;;;10.97;100.00
46722;BME280;32455;43.430;23.136;2023-05-12T01:27:12;98411.69;;;10.84;100.00
46722;BME280;32455;43.430;23.136;2023-05-12T01:30:00;98384.94;;;10.64;100.00
46722;BME280;32455;43.430;23.136;2023-05-12T01:32:45;98406.09;;;10.78;100.00
46722;BME280;32455;43.430;23.136;2023-05-12T01:35:31;98410.88;;;10.76;100.00
46722;BME280;32455;43.430;23.136;2023-05-12T01:38:16;98407.31;;;10.83;100.00
46722;BME280;32455;43.430;23.136;2023-05-12T01:41:02;98428.06;;;10.75;100.00
46722;BME280;32455;43.430;23.136;2023-05-12T01:43:47;98418.22;;;10.63;100.00
46722;BME280;32455;43.430;23.136;2023-05-12T01:46:33;98407.69;;;10.61;100.00
46722;BME280;32455;43.430;23.136;2023-05-12T01:49:18;98415.72;;;10.61;100.00
46722;BME280;32455;43.430;23.136;2023-05-12T01:52:04;98426.22;;;10.69;100.00
46722;BME280;32455;43.430;23.136;2023-05-12T01:54:49;98415.53;;;10.63;100.00
46722;BME280;32455;43.430;23.136;2023-05-12T01:57:35;98417.19;;;10.64;100.00
46722;BME280;32455;43.430;23.136;2023-05-12T02:00:19;98416.78;;;10.60;100.00
46722;BME280;32455;43.430;23.136;2023-05-12T02:03:04;98409.78;;;10.59;100.00
46722;BME280;32455;43.430;23.136;2023-05-12T02:05:50;98415.72;;;10.68;100.00
46722;BME280;32455;43.430;23.136;2023-05-12T02:08:35;98422.50;;;10.70;100.00
46722;BME280;32455;43.430;23.136;2023-05-12T02:11:20;98434.91;;;10.71;100.00
46722;BME280;32455;43.430;23.136;2023-05-12T02:14:05;98428.78;;;10.58;100.00
46722;BME280;32455;43.430;23.136;2023-05-12T02:16:50;98416.38;;;10.57;100.00
46722;BME280;32455;43.430;23.136;2023-05-12T02:19:36;98425.72;;;10.54;100.00
46722;BME280;32455;43.430;23.136;2023-05-12T02:22:22;98403.25;;;10.42;100.00
46722;BME280;32455;43.430;23.136;2023-05-12T02:25:08;98428.00;;;10.50;100.00
46722;BME280;32455;43.430;23.136;2023-05-12T02:27:53;98426.41;;;10.43;100.00
46722;BME280;32455;43.430;23.136;2023-05-12T02:30:44;98428.25;;;10.42;100.00
46722;BME280;32455;43.430;23.136;2023-05-12T02:33:29;98412.00;;;10.24;100.00
46722;BME280;32455;43.430;23.136;2023-05-12T02:36:15;98418.25;;;10.24;100.00
46722;BME280;32455;43.430;23.136;2023-05-12T02:39:00;98427.06;;;10.32;100.00
46722;BME280;32455;43.430;23.136;2023-05-12T02:41:46;98431.59;;;10.38;100.00
46722;BME280;32455;43.430;23.136;2023-05-12T02:44:31;98438.03;;;10.30;100.00
46722;BME280;32455;43.430;23.136;2023-05-12T02:47:16;98435.16;;;10.25;100.00
46722;BME280;32455;43.430;23.136;2023-05-12T02:50:02;98430.19;;;10.28;100.00
46722;BME280;32455;43.430;23.136;2023-05-12T02:52:47;98435.56;;;10.22;100.00
46722;BME280;32455;43.430;23.136;2023-05-12T02:55:33;98438.88;;;10.24;100.00
46722;BME280;32455;43.430;23.136;2023-05-12T02:58:18;98392.59;;;9.77;100.00
46722;BME280;32455;43.430;23.136;2023-05-12T03:01:03;98446.81;;;9.99;100.00
46722;BME280;32455;43.430;23.136;2023-05-12T03:03:49;98437.78;;;9.87;100.00
46722;BME280;32455;43.430;23.136;2023-05-12T03:06:34;98436.72;;;9.88;100.00
46722;BME280;32455;43.430;23.136;2023-05-12T03:09:20;98448.06;;;9.96;100.00
46722;BME280;32455;43.430;23.136;2023-05-12T03:12:05;98448.69;;;9.92;100.00
46722;BME280;32455;43.430;23.136;2023-05-12T03:14:51;98452.81;;;9.88;100.00
46722;BME280;32455;43.430;23.136;2023-05-12T03:17:37;98444.00;;;9.74;100.00
46722;BME280;32455;43.430;23.136;2023-05-12T03:20:22;98444.84;;;9.61;100.00
46722;BME280;32455;43.430;23.136;2023-05-12T03:23:08;98452.06;;;9.67;100.00
46722;BME280;32455;43.430;23.136;2023-05-12T03:25:53;98461.97;;;9.67;100.00
46722;BME280;32455;43.430;23.136;2023-05-12T03:28:39;98451.25;;;9.60;100.00
46722;BME280;32455;43.430;23.136;2023-05-12T03:31:24;98466.75;;;9.51;100.00
46722;BME280;32455;43.430;23.136;2023-05-12T03:34:10;98466.75;;;9.45;100.00
46722;BME280;32455;43.430;23.136;2023-05-12T03:36:55;98462.63;;;9.42;100.00
46722;BME280;32455;43.430;23.136;2023-05-12T03:39:41;98475.41;;;9.40;100.00
46722;BME280;32455;43.430;23.136;2023-05-12T03:42:25;98480.97;;;9.45;100.00
46722;BME280;32455;43.430;23.136;2023-05-12T03:45:10;98476.06;;;9.42;100.00
46722;BME280;32455;43.430;23.136;2023-05-12T03:47:56;98480.97;;;9.45;100.00
46722;BME280;32455;43.430;23.136;2023-05-12T03:50:41;98476.66;;;9.51;100.00
46722;BME280;32455;43.430;23.136;2023-05-12T03:53:26;98480.38;;;9.43;100.00
46722;BME280;32455;43.430;23.136;2023-05-12T03:56:12;98499.97;;;9.44;100.00
46722;BME280;32455;43.430;23.136;2023-05-12T03:58:57;98488.63;;;9.35;100.00
46722;BME280;32455;43.430;23.136;2023-05-12T04:01:42;98494.00;;;9.35;100.00
46722;BME280;32455;43.430;23.136;2023-05-12T04:04:28;98495.41;;;9.38;100.00
46722;BME280;32455;43.430;23.136;2023-05-12T04:07:13;98483.88;;;9.31;100.00
46722;BME280;32455;43.430;23.136;2023-05-12T04:09:59;98492.53;;;9.39;100.00
46722;BME280;32455;43.430;23.136;2023-05-12T04:12:44;98499.13;;;9.37;100.00
46722;BME280;32455;43.430;23.136;2023-05-12T04:15:29;98499.78;;;9.39;100.00
46722;BME280;32455;43.430;23.136;2023-05-12T04:18:15;98494.19;;;9.20;100.00
46722;BME280;32455;43.430;23.136;2023-05-12T04:21:01;98514.00;;;9.26;100.00
46722;BME280;32455;43.430;23.136;2023-05-12T04:23:50;98507.59;;;9.20;100.00
46722;BME280;32455;43.430;23.136;2023-05-12T04:26:36;98501.19;;;8.88;100.00
46722;BME280;32455;43.430;23.136;2023-05-12T04:29:21;98519.13;;;9.01;100.00
46722;BME280;32455;43.430;23.136;2023-05-12T04:32:07;98511.69;;;9.03;100.00
46722;BME280;32455;43.430;23.136;2023-05-12T04:34:52;98521.22;;;9.12;100.00
46722;BME280;32455;43.430;23.136;2023-05-12T04:37:39;98511.69;;;9.03;100.00
46722;BME280;32455;43.430;23.136;2023-05-12T04:40:26;98524.09;;;9.11;100.00
46722;BME280;32455;43.430;23.136;2023-05-12T04:43:11;98518.13;;;9.09;100.00
46722;BME280;32455;43.430;23.136;2023-05-12T04:45:56;98519.28;;;8.86;100.00
46722;BME280;32455;43.430;23.136;2023-05-12T04:48:41;98521.16;;;8.99;100.00
46722;BME280;32455;43.430;23.136;2023-05-12T04:51:27;98520.97;;;8.94;100.00
46722;BME280;32455;43.430;23.136;2023-05-12T04:54:13;98522.44;;;8.96;100.00
46722;BME280;32455;43.430;23.136;2023-05-12T04:56:58;98529.25;;;9.06;100.00
46722;BME280;32455;43.430;23.136;2023-05-12T04:59:44;98495.19;;;8.80;100.00
46722;BME280;32455;43.430;23.136;2023-05-12T05:02:29;98518.91;;;8.83;100.00
46722;BME280;32455;43.430;23.136;2023-05-12T05:05:14;98531.28;;;8.97;100.00
46722;BME280;32455;43.430;23.136;2023-05-12T05:08:00;98523.00;;;8.78;100.00
46722;BME280;32455;43.430;23.136;2023-05-12T05:10:45;98532.28;;;8.89;100.00
46722;BME280;32455;43.430;23.136;2023-05-12T05:13:30;98522.78;;;8.80;100.00
46722;BME280;32455;43.430;23.136;2023-05-12T05:16:16;98528.13;;;8.73;100.00
46722;BME280;32455;43.430;23.136;2023-05-12T05:19:01;98513.72;;;8.74;100.00
46722;BME280;32455;43.430;23.136;2023-05-12T05:21:47;98535.38;;;8.80;100.00
46722;BME280;32455;43.430;23.136;2023-05-12T05:24:31;98537.41;;;8.77;100.00
46722;BME280;32455;43.430;23.136;2023-05-12T05:27:17;98541.59;;;8.87;100.00
46722;BME280;32455;43.430;23.136;2023-05-12T05:30:02;98545.47;;;8.84;100.00
46722;BME280;32455;43.430;23.136;2023-05-12T05:32:47;98547.09;;;8.65;100.00
46722;BME280;32455;43.430;23.136;2023-05-12T05:35:32;98545.44;;;8.71;100.00
46722;BME280;32455;43.430;23.136;2023-05-12T05:38:17;98543.97;;;8.68;100.00
46722;BME280;32455;43.430;23.136;2023-05-12T05:41:03;98559.91;;;8.90;100.00
46722;BME280;32455;43.430;23.136;2023-05-12T05:43:48;98548.78;;;8.80;100.00
46722;BME280;32455;43.430;23.136;2023-05-12T05:46:33;98556.16;;;8.77;100.00
46722;BME280;32455;43.430;23.136;2023-05-12T05:49:19;98556.38;;;8.76;100.00
46722;BME280;32455;43.430;23.136;2023-05-12T05:52:04;98565.47;;;8.82;100.00
46722;BME280;32455;43.430;23.136;2023-05-12T05:54:49;98568.56;;;8.78;100.00
46722;BME280;32455;43.430;23.136;2023-05-12T05:57:35;98565.84;;;8.72;100.00
46722;BME280;32455;43.430;23.136;2023-05-12T06:00:22;98566.03;;;8.64;100.00
46722;BME280;32455;43.430;23.136;2023-05-12T06:03:07;98575.25;;;8.48;100.00
46722;BME280;32455;43.430;23.136;2023-05-12T06:05:53;98569.69;;;8.49;100.00
46722;BME280;32455;43.430;23.136;2023-05-12T06:08:38;98581.81;;;8.52;100.00
46722;BME280;32455;43.430;23.136;2023-05-12T06:11:24;98591.09;;;8.49;100.00
46722;BME280;32455;43.430;23.136;2023-05-12T06:14:09;98572.88;;;8.32;100.00
46722;BME280;32455;43.430;23.136;2023-05-12T06:16:55;98578.84;;;8.34;100.00
46722;BME280;32455;43.430;23.136;2023-05-12T06:19:41;98596.19;;;8.38;100.00
46722;BME280;32455;43.430;23.136;2023-05-12T06:22:31;98598.81;;;8.31;100.00
46722;BME280;32455;43.430;23.136;2023-05-12T06:25:18;98598.75;;;8.24;100.00
46722;BME280;32455;43.430;23.136;2023-05-12T06:28:04;98595.09;;;8.32;100.00
46722;BME280;32455;43.430;23.136;2023-05-12T06:30:50;98605.59;;;8.27;100.00
46722;BME280;32455;43.430;23.136;2023-05-12T06:33:35;98615.94;;;8.09;100.00
46722;BME280;32455;43.430;23.136;2023-05-12T06:36:21;98613.34;;;8.15;100.00
46722;BME280;32455;43.430;23.136;2023-05-12T06:39:06;98622.41;;;8.21;100.00
46722;BME280;32455;43.430;23.136;2023-05-12T06:41:51;98617.03;;;8.14;100.00
46722;BME280;32455;43.430;23.136;2023-05-12T06:44:37;98617.88;;;8.15;100.00
46722;BME280;32455;43.430;23.136;2023-05-12T06:47:22;98612.94;;;8.18;100.00
46722;BME280;32455;43.430;23.136;2023-05-12T06:50:08;98623.16;;;8.08;100.00
46722;BME280;32455;43.430;23.136;2023-05-12T06:52:53;98619.06;;;8.12;100.00
46722;BME280;32455;43.430;23.136;2023-05-12T06:55:39;98620.56;;;8.21;100.00
46722;BME280;32455;43.430;23.136;2023-05-12T06:58:23;98622.63;;;8.19;100.00
46722;BME280;32455;43.430;23.136;2023-05-12T07:01:09;98602.84;;;8.14;100.00
46722;BME280;32455;43.430;23.136;2023-05-12T07:03:55;98616.25;;;8.20;100.00
46722;BME280;32455;43.430;23.136;2023-05-12T07:06:40;98611.00;;;8.06;100.00
46722;BME280;32455;43.430;23.136;2023-05-12T07:09:25;98615.47;;;8.26;100.00
46722;BME280;32455;43.430;23.136;2023-05-12T07:12:11;98621.00;;;8.25;100.00
46722;BME280;32455;43.430;23.136;2023-05-12T07:14:56;98617.72;;;8.29;100.00
46722;BME280;32455;43.430;23.136;2023-05-12T07:17:41;98619.97;;;8.26;100.00
46722;BME280;32455;43.430;23.136;2023-05-12T07:20:27;98637.94;;;8.32;100.00
46722;BME280;32455;43.430;23.136;2023-05-12T07:23:12;98631.47;;;8.20;100.00
46722;BME280;32455;43.430;23.136;2023-05-12T07:25:57;98639.44;;;8.13;100.00
46722;BME280;32455;43.430;23.136;2023-05-12T07:28:42;98614.78;;;8.18;100.00
46722;BME280;32455;43.430;23.136;2023-05-12T07:31:28;98628.84;;;8.26;100.00
46722;BME280;32455;43.430;23.136;2023-05-12T07:34:13;98630.06;;;8.24;100.00
46722;BME280;32455;43.430;23.136;2023-05-12T07:36:59;98633.94;;;8.15;100.00
46722;BME280;32455;43.430;23.136;2023-05-12T07:39:48;98635.94;;;8.13;100.00
46722;BME280;32455;43.430;23.136;2023-05-12T07:42:33;98630.78;;;7.83;100.00
46722;BME280;32455;43.430;23.136;2023-05-12T07:45:19;98633.72;;;8.16;100.00
46722;BME280;32455;43.430;23.136;2023-05-12T07:48:06;98637.63;;;8.14;100.00
46722;BME280;32455;43.430;23.136;2023-05-12T07:50:51;98636.84;;;8.20;100.00
46722;BME280;32455;43.430;23.136;2023-05-12T07:53:37;98653.38;;;8.30;100.00
46722;BME280;32455;43.430;23.136;2023-05-12T07:56:23;98652.53;;;8.29;100.00
46722;BME280;32455;43.430;23.136;2023-05-12T07:59:08;98638.84;;;8.11;100.00
46722;BME280;32455;43.430;23.136;2023-05-12T08:01:54;98652.56;;;8.01;100.00
46722;BME280;32455;43.430;23.136;2023-05-12T08:04:40;98648.38;;;8.20;100.00
46722;BME280;32455;43.430;23.136;2023-05-12T08:07:25;98651.75;;;8.01;100.00
46722;BME280;32455;43.430;23.136;2023-05-12T08:10:11;98662.72;;;8.13;100.00
46722;BME280;32455;43.430;23.136;2023-05-12T08:12:57;98663.41;;;8.21;100.00
46722;BME280;32455;43.430;23.136;2023-05-12T08:15:42;98655.72;;;8.12;100.00
46722;BME280;32455;43.430;23.136;2023-05-12T08:18:27;98657.56;;;7.40;100.00
46722;BME280;32455;43.430;23.136;2023-05-12T08:21:13;98650.50;;;7.75;100.00
46722;BME280;32455;43.430;23.136;2023-05-12T08:23:58;98652.59;;;8.08;100.00
46722;BME280;32455;43.430;23.136;2023-05-12T08:26:44;98659.81;;;8.08;100.00
46722;BME280;32455;43.430;23.136;2023-05-12T08:29:29;98664.63;;;8.19;100.00
46722;BME280;32455;43.430;23.136;2023-05-12T08:32:15;98668.06;;;8.13;100.00
46722;BME280;32455;43.430;23.136;2023-05-12T08:35:00;98656.25;;;8.28;100.00
46722;BME280;32455;43.430;23.136;2023-05-12T08:37:46;98656.34;;;8.42;100.00
46722;BME280;32455;43.430;23.136;2023-05-12T08:41:24;98673.06;;;8.44;100.00
46722;BME280;32455;43.430;23.136;2023-05-12T08:43:44;98668.94;;;8.41;100.00
46722;BME280;32455;43.430;23.136;2023-05-12T08:46:30;98673.25;;;8.42;100.00
46722;BME280;32455;43.430;23.136;2023-05-12T08:49:19;98670.03;;;8.53;100.00
46722;BME280;32455;43.430;23.136;2023-05-12T08:52:06;98677.25;;;8.53;100.00
46722;BME280;32455;43.430;23.136;2023-05-12T08:54:52;98675.16;;;8.48;100.00
46722;BME280;32455;43.430;23.136;2023-05-12T08:57:39;98684.06;;;8.27;100.00
46722;BME280;32455;43.430;23.136;2023-05-12T09:00:27;98671.72;;;8.33;100.00
46722;BME280;32455;43.430;23.136;2023-05-12T09:03:13;98662.97;;;8.46;100.00
46722;BME280;32455;43.430;23.136;2023-05-12T09:05:59;98678.69;;;8.27;100.00
46722;BME280;32455;43.430;23.136;2023-05-12T09:08:44;98673.47;;;8.47;100.00
46722;BME280;32455;43.430;23.136;2023-05-12T09:11:29;98669.38;;;8.51;100.00
46722;BME280;32455;43.430;23.136;2023-05-12T09:14:23;98667.78;;;8.57;100.00
46722;BME280;32455;43.430;23.136;2023-05-12T09:17:08;98675.59;;;8.31;100.00
46722;BME280;32455;43.430;23.136;2023-05-12T09:19:55;98663.38;;;8.43;100.00
46722;BME280;32455;43.430;23.136;2023-05-12T09:22:39;98674.41;;;8.61;100.00
46722;BME280;32455;43.430;23.136;2023-05-12T09:25:25;98658.50;;;8.53;100.00
46722;BME280;32455;43.430;23.136;2023-05-12T09:28:10;98668.03;;;8.62;100.00
46722;BME280;32455;43.430;23.136;2023-05-12T09:30:55;98669.13;;;8.74;100.00
46722;BME280;32455;43.430;23.136;2023-05-12T09:33:41;98658.94;;;8.63;100.00
46722;BME280;32455;43.430;23.136;2023-05-12T09:36:27;98671.09;;;8.59;100.00
46722;BME280;32455;43.430;23.136;2023-05-12T09:39:12;98663.72;;;8.68;100.00
46722;BME280;32455;43.430;23.136;2023-05-12T09:41:58;98657.47;;;8.54;100.00
46722;BME280;32455;43.430;23.136;2023-05-12T09:44:44;98663.50;;;8.63;100.00
46722;BME280;32455;43.430;23.136;2023-05-12T09:47:37;98675.81;;;8.57;100.00
46722;BME280;32455;43.430;23.136;2023-05-12T09:50:22;98663.09;;;8.66;100.00
46722;BME280;32455;43.430;23.136;2023-05-12T09:53:07;98673.16;;;8.64;100.00
46722;BME280;32455;43.430;23.136;2023-05-12T09:55:52;98678.16;;;8.73;100.00
46722;BME280;32455;43.430;23.136;2023-05-12T09:58:48;98669.72;;;8.70;100.00
46722;BME280;32455;43.430;23.136;2023-05-12T10:01:34;98648.31;;;8.76;100.00
46722;BME280;32455;43.430;23.136;2023-05-12T10:04:19;98656.00;;;8.93;100.00
46722;BME280;32455;43.430;23.136;2023-05-12T10:07:08;98650.94;;;8.07;100.00
46722;BME280;32455;43.430;23.136;2023-05-12T10:09:54;98675.00;;;8.57;100.00
46722;BME280;32455;43.430;23.136;2023-05-12T10:12:43;98654.81;;;8.61;100.00
46722;BME280;32455;43.430;23.136;2023-05-12T10:15:29;98667.50;;;8.80;100.00
46722;BME280;32455;43.430;23.136;2023-05-12T10:18:15;98668.19;;;8.95;100.00
46722;BME280;32455;43.430;23.136;2023-05-12T10:21:02;98673.16;;;9.05;100.00
46722;BME280;32455;43.430;23.136;2023-05-12T10:23:47;98677.47;;;8.58;100.00
46722;BME280;32455;43.430;23.136;2023-05-12T10:26:36;98672.69;;;8.95;100.00
46722;BME280;32455;43.430;23.136;2023-05-12T10:29:22;98654.19;;;9.00;100.00
46722;BME280;32455;43.430;23.136;2023-05-12T10:32:14;98658.34;;;9.09;100.00
46722;BME280;32455;43.430;23.136;2023-05-12T10:35:10;98671.13;;;9.20;100.00
46722;BME280;32455;43.430;23.136;2023-05-12T10:38:00;98662.06;;;9.08;100.00
46722;BME280;32455;43.430;23.136;2023-05-12T10:40:58;98679.97;;;9.08;100.00
46722;BME280;32455;43.430;23.136;2023-05-12T10:43:48;98680.47;;;9.31;100.00
46722;BME280;32455;43.430;23.136;2023-05-12T10:46:34;98677.63;;;9.52;100.00
46722;BME280;32455;43.430;23.136;2023-05-12T10:49:30;98673.47;;;9.37;100.00
46722;BME280;32455;43.430;23.136;2023-05-12T10:52:18;98658.56;;;9.14;100.00
46722;BME280;32455;43.430;23.136;2023-05-12T10:55:04;98674.47;;;9.29;100.00
46722;BME280;32455;43.430;23.136;2023-05-12T10:58:07;98677.84;;;9.51;100.00
46722;BME280;32455;43.430;23.136;2023-05-12T11:00:52;98654.72;;;9.50;100.00
46722;BME280;32455;43.430;23.136;2023-05-12T11:03:38;98675.97;;;9.58;100.00
46722;BME280;32455;43.430;23.136;2023-05-12T11:06:24;98668.78;;;9.65;100.00
46722;BME280;32455;43.430;23.136;2023-05-12T11:09:13;98663.63;;;9.84;100.00
46722;BME280;32455;43.430;23.136;2023-05-12T11:11:58;98670.88;;;9.83;100.00
46722;BME280;32455;43.430;23.136;2023-05-12T11:14:45;98672.94;;;9.88;100.00
46722;BME280;32455;43.430;23.136;2023-05-12T11:17:31;98679.75;;;10.03;100.00
46722;BME280;32455;43.430;23.136;2023-05-12T11:20:24;98680.56;;;10.04;100.00
46722;BME280;32455;43.430;23.136;2023-05-12T11:23:09;98657.44;;;9.83;100.00
46722;BME280;32455;43.430;23.136;2023-05-12T11:25:55;98649.81;;;9.87;100.00
46722;BME280;32455;43.430;23.136;2023-05-12T11:28:41;98652.91;;;9.97;100.00
46722;BME280;32455;43.430;23.136;2023-05-12T11:31:26;98662.81;;;10.16;100.00
46722;BME280;32455;43.430;23.136;2023-05-12T11:34:11;98663.00;;;10.48;100.00
46722;BME280;32455;43.430;23.136;2023-05-12T11:36:58;98672.50;;;10.44;100.00
46722;BME280;32455;43.430;23.136;2023-05-12T11:39:44;98674.97;;;10.19;100.00
46722;BME280;32455;43.430;23.136;2023-05-12T11:42:29;98666.50;;;10.02;100.00
46722;BME280;32455;43.430;23.136;2023-05-12T11:45:28;98672.53;;;10.11;100.00
46722;BME280;32455;43.430;23.136;2023-05-12T11:48:14;98657.44;;;10.03;100.00
46722;BME280;32455;43.430;23.136;2023-05-12T11:51:01;98668.97;;;10.23;100.00
46722;BME280;32455;43.430;23.136;2023-05-12T11:53:47;98675.22;;;10.24;100.00
46722;BME280;32455;43.430;23.136;2023-05-12T11:56:32;98678.72;;;10.31;100.00
46722;BME280;32455;43.430;23.136;2023-05-12T11:59:32;98676.03;;;10.31;100.00
46722;BME280;32455;43.430;23.136;2023-05-12T12:02:21;98669.66;;;10.32;100.00
46722;BME280;32455;43.430;23.136;2023-05-12T12:05:17;98672.94;;;10.41;100.00
46722;BME280;32455;43.430;23.136;2023-05-12T12:08:10;98675.41;;;10.42;100.00
46722;BME280;32455;43.430;23.136;2023-05-12T12:10:59;98666.31;;;10.43;100.00
46722;BME280;32455;43.430;23.136;2023-05-12T12:13:50;98674.97;;;10.52;100.00
46722;BME280;32455;43.430;23.136;2023-05-12T12:16:42;98680.75;;;10.62;100.00
46722;BME280;32455;43.430;23.136;2023-05-12T12:19:27;98668.41;;;10.41;100.00
46722;BME280;32455;43.430;23.136;2023-05-12T12:22:12;98675.41;;;10.42;100.00
46722;BME280;32455;43.430;23.136;2023-05-12T12:24:58;98672.09;;;10.47;100.00
46722;BME280;32455;43.430;23.136;2023-05-12T12:27:44;98673.34;;;10.51;100.00
46722;BME280;32455;43.430;23.136;2023-05-12T12:30:30;98679.53;;;10.51;100.00
46722;BME280;32455;43.430;23.136;2023-05-12T12:33:15;98642.53;;;10.47;100.00
46722;BME280;32455;43.430;23.136;2023-05-12T12:36:00;98670.84;;;10.63;100.00
46722;BME280;32455;43.430;23.136;2023-05-12T12:38:45;98662.72;;;10.69;100.00
46722;BME280;32455;43.430;23.136;2023-05-12T12:41:30;98658.41;;;10.62;100.00
46722;BME280;32455;43.430;23.136;2023-05-12T12:44:16;98652.03;;;10.63;100.00
46722;BME280;32455;43.430;23.136;2023-05-12T12:47:01;98657.81;;;10.66;100.00
46722;BME280;32455;43.430;23.136;2023-05-12T12:49:47;98650.56;;;10.60;100.00
46722;BME280;32455;43.430;23.136;2023-05-12T12:52:32;98660.88;;;10.76;100.00
46722;BME280;32455;43.430;23.136;2023-05-12T12:55:17;98658.63;;;10.67;100.00
46722;BME280;32455;43.430;23.136;2023-05-12T12:58:03;98645.56;;;10.77;100.00
46722;BME280;32455;43.430;23.136;2023-05-12T13:00:49;98653.41;;;10.78;100.00
46722;BME280;32455;43.430;23.136;2023-05-12T13:03:34;98643.50;;;10.66;100.00
46722;BME280;32455;43.430;23.136;2023-05-12T13:06:19;98644.97;;;10.68;100.00
46722;BME280;32455;43.430;23.136;2023-05-12T13:09:04;98633.22;;;10.63;100.00
46722;BME280;32455;43.430;23.136;2023-05-12T13:11:49;98635.25;;;10.67;100.00
46722;BME280;32455;43.430;23.136;2023-05-12T13:14:35;98632.56;;;10.67;100.00
46722;BME280;32455;43.430;23.136;2023-05-12T13:17:20;98641.03;;;10.71;100.00
46722;BME280;32455;43.430;23.136;2023-05-12T13:20:06;98637.72;;;10.75;100.00
46722;BME280;32455;43.430;23.136;2023-05-12T13:22:52;98630.88;;;10.80;100.00
46722;BME280;32455;43.430;23.136;2023-05-12T13:25:38;98624.03;;;10.84;100.00
46722;BME280;32455;43.430;23.136;2023-05-12T13:28:23;98627.63;;;10.64;100.00
46722;BME280;32455;43.430;23.136;2023-05-12T13:31:07;98627.16;;;10.74;100.00
46722;BME280;32455;43.430;23.136;2023-05-12T13:33:52;98632.69;;;10.86;100.00
46722;BME280;32455;43.430;23.136;2023-05-12T13:36:38;98630.59;;;10.94;100.00
46722;BME280;32455;43.430;23.136;2023-05-12T13:39:23;98638.25;;;10.97;100.00
46722;BME280;32455;43.430;23.136;2023-05-12T13:42:08;98639.47;;;11.01;100.00
46722;BME280;32455;43.430;23.136;2023-05-12T13:44:54;98625.63;;;10.91;100.00
46722;BME280;32455;43.430;23.136;2023-05-12T13:47:39;98629.59;;;10.89;100.00
46722;BME280;32455;43.430;23.136;2023-05-12T13:50:25;98626.28;;;10.93;100.00
46722;BME280;32455;43.430;23.136;2023-05-12T13:53:10;98629.56;;;10.95;100.00
46722;BME280;32455;43.430;23.136;2023-05-12T13:56:01;98640.28;;;11.02;100.00
46722;BME280;32455;43.430;23.136;2023-05-12T13:58:47;98637.84;;;10.94;100.00
46722;BME280;32455;43.430;23.136;2023-05-12T14:01:32;98614.69;;;10.93;100.00
46722;BME280;32455;43.430;23.136;2023-05-12T14:04:17;98616.97;;;10.89;100.00
46722;BME280;32455;43.430;23.136;2023-05-12T14:07:02;98635.50;;;11.04;100.00
46722;BME280;32455;43.430;23.136;2023-05-12T14:09:48;98622.06;;;11.04;100.00
46722;BME280;32455;43.430;23.136;2023-05-12T14:12:34;98629.47;;;11.15;100.00
46722;BME280;32455;43.430;23.136;2023-05-12T14:15:19;98628.84;;;11.13;100.00
46722;BME280;32455;43.430;23.136;2023-05-12T14:18:04;98629.13;;;11.05;100.00
46722;BME280;32455;43.430;23.136;2023-05-12T14:20:49;98629.00;;;11.25;100.00
46722;BME280;32455;43.430;23.136;2023-05-12T14:23:35;98635.81;;;11.27;100.00